createdAt,value
2023-03-19T00:00:36.963Z,99853.09
2023-03-19T00:03:03.802Z,99920.81
2023-03-19T00:05:30.602Z,99877.84
2023-03-19T00:07:57.383Z,99868.03
2023-03-19T00:10:24.101Z,99919.84
2023-03-19T00:12:50.777Z,99880.31
2023-03-19T00:15:17.502Z,99901.34
2023-03-19T00:17:44.273Z,99946.34
2023-03-19T00:20:12.778Z,99940.94
2023-03-19T00:22:40.381Z,99946.22
2023-03-19T00:25:08.683Z,99921.50
2023-03-19T00:27:37.637Z,99907.13
2023-03-19T00:30:06.994Z,99938.41
2023-03-19T00:32:34.295Z,99948.66
2023-03-19T00:35:01.520Z,99927.59
2023-03-19T00:37:28.648Z,99904.81
2023-03-19T00:39:56.350Z,99915.03
2023-03-19T00:42:23.051Z,99928.75
2023-03-19T00:44:49.708Z,99876.88
2023-03-19T00:47:16.622Z,99894.06
2023-03-19T00:49:43.315Z,99921.38
2023-03-19T00:52:10.070Z,99877.59
2023-03-19T00:54:36.794Z,99928.75
2023-03-19T00:57:03.657Z,99922.44
2023-03-19T00:59:30.589Z,99914.63
2023-03-19T01:01:57.316Z,99901.13
2023-03-19T01:04:24.128Z,99943.00
2023-03-19T01:06:51.133Z,99940.75
2023-03-19T01:09:17.992Z,99941.88
2023-03-19T01:11:44.854Z,99936.09
2023-03-19T01:14:11.821Z,100005.13
2023-03-19T01:16:38.595Z,99925.59
2023-03-19T01:19:06.148Z,99966.53
2023-03-19T01:21:33.473Z,100000.72
2023-03-19T01:24:00.594Z,99942.84
2023-03-19T01:26:27.453Z,99950.50
2023-03-19T01:28:54.335Z,100018.78
2023-03-19T01:31:22.147Z,99975.28
2023-03-19T01:33:48.903Z,99977.72
2023-03-19T01:36:15.608Z,99980.28
2023-03-19T01:38:42.776Z,99968.59
2023-03-19T01:41:09.778Z,100020.66
2023-03-19T01:43:36.762Z,100000.03
2023-03-19T01:46:06.906Z,100061.00
2023-03-19T01:48:50.379Z,100062.22
2023-03-19T01:51:18.648Z,100066.16
2023-03-19T01:53:53.180Z,100034.47
2023-03-19T01:56:22.813Z,100057.59
2023-03-19T01:58:53.528Z,100051.66
2023-03-19T02:01:20.722Z,100052.50
2023-03-19T02:03:48.863Z,100078.69
2023-03-19T02:06:16.828Z,100066.16
2023-03-19T02:08:43.873Z,100031.25
2023-03-19T02:11:10.875Z,99999.13
2023-03-19T02:13:38.097Z,100011.34
2023-03-19T02:16:05.363Z,100021.63
2023-03-19T02:18:32.433Z,100040.41
2023-03-19T02:21:07.019Z,100063.81
2023-03-19T02:23:36.361Z,100063.94
2023-03-19T02:26:07.052Z,100056.47
2023-03-19T02:28:36.725Z,100046.31
2023-03-19T02:31:03.610Z,100015.09
2023-03-19T02:33:30.630Z,100020.97
2023-03-19T02:35:58.755Z,100074.34
2023-03-19T02:38:27.382Z,100047.41
2023-03-19T02:41:00.904Z,100059.38
2023-03-19T02:43:28.054Z,100038.97
2023-03-19T02:45:55.494Z,100023.19
2023-03-19T02:48:22.404Z,100040.41
2023-03-19T02:50:49.103Z,100027.06
2023-03-19T02:53:16.066Z,100005.72
2023-03-19T02:55:43.407Z,100028.69
2023-03-19T02:58:10.208Z,100048.66
2023-03-19T03:00:37.983Z,100037.34
2023-03-19T03:03:06.834Z,100032.59
2023-03-19T03:05:34.285Z,100050.50
2023-03-19T03:08:01.020Z,100045.72
2023-03-19T03:10:28.050Z,100043.22
2023-03-19T03:12:55.295Z,100097.97
2023-03-19T03:15:22.053Z,100102.22
2023-03-19T03:17:48.778Z,100058.00
2023-03-19T03:20:17.799Z,100044.31
2023-03-19T03:22:44.677Z,100067.50
2023-03-19T03:25:11.582Z,100101.00
2023-03-19T03:27:38.691Z,100119.91
2023-03-19T03:30:08.207Z,100086.84
2023-03-19T03:32:36.836Z,100111.28
2023-03-19T03:35:05.367Z,100132.97
2023-03-19T03:37:32.071Z,100080.56
2023-03-19T03:39:58.748Z,100101.44
2023-03-19T03:42:25.573Z,100105.00
2023-03-19T03:44:52.325Z,100072.16
2023-03-19T03:47:19.026Z,100092.69
2023-03-19T03:49:45.726Z,100089.69
2023-03-19T03:52:12.562Z,100115.22
2023-03-19T03:54:39.218Z,100117.00
2023-03-19T03:57:06.167Z,100135.09
2023-03-19T03:59:32.842Z,100082.59
2023-03-19T04:01:59.545Z,100107.13
2023-03-19T04:04:26.657Z,100155.97
2023-03-19T04:06:53.355Z,100125.44
2023-03-19T04:09:20.058Z,100121.38
2023-03-19T04:11:46.775Z,100140.88
2023-03-19T04:14:13.514Z,100129.94
2023-03-19T04:16:40.307Z,100147.06
2023-03-19T04:19:08.011Z,100159.16
2023-03-19T04:21:34.846Z,100157.66
2023-03-19T04:24:02.307Z,100151.66
2023-03-19T04:26:29.114Z,100149.00
2023-03-19T04:28:55.905Z,100152.91
2023-03-19T04:31:22.647Z,100147.81
2023-03-19T04:33:49.764Z,100121.47
2023-03-19T04:36:18.017Z,100100.91
2023-03-19T04:38:44.693Z,100132.47
2023-03-19T04:41:11.380Z,100197.25
2023-03-19T04:43:38.079Z,100166.72
2023-03-19T04:46:05.107Z,100178.44
2023-03-19T04:48:32.343Z,100157.22
2023-03-19T04:50:59.014Z,100177.88
2023-03-19T04:53:25.735Z,100177.84
2023-03-19T04:55:52.424Z,100170.03
2023-03-19T04:58:19.204Z,100163.97
2023-03-19T05:00:47.595Z,100176.03
2023-03-19T05:03:17.658Z,100219.63
2023-03-19T05:05:44.924Z,100238.25
2023-03-19T05:08:11.721Z,100213.63
2023-03-19T05:10:38.605Z,100239.75
2023-03-19T05:13:05.607Z,100209.41
2023-03-19T05:15:32.457Z,100229.94
2023-03-19T05:17:59.233Z,100232.63
2023-03-19T05:20:25.917Z,100213.59
2023-03-19T05:22:53.749Z,100224.25
2023-03-19T05:25:20.732Z,100233.13
2023-03-19T05:27:47.499Z,100209.72
2023-03-19T05:30:14.881Z,100273.22
2023-03-19T05:32:41.733Z,100247.22
2023-03-19T05:35:08.884Z,100268.31
2023-03-19T05:37:35.702Z,100285.09
2023-03-19T05:40:02.399Z,100260.28
2023-03-19T05:42:29.144Z,100256.84
2023-03-19T05:44:55.846Z,100242.31
2023-03-19T05:47:22.637Z,100287.13
2023-03-19T05:49:50.437Z,100290.06
2023-03-19T05:52:17.247Z,100238.50
2023-03-19T05:54:43.969Z,100243.66
2023-03-19T05:57:10.797Z,100274.47
2023-03-19T05:59:37.485Z,100259.22
2023-03-19T06:02:04.165Z,100302.59
2023-03-19T06:04:31.291Z,100294.78
2023-03-19T06:06:57.932Z,100297.69
2023-03-19T06:09:25.033Z,100309.56
2023-03-19T06:11:51.726Z,100283.56
2023-03-19T06:14:18.399Z,100311.00
2023-03-19T06:16:45.256Z,100297.22
2023-03-19T06:19:12.060Z,100321.41
2023-03-19T06:21:38.759Z,100285.84
2023-03-19T06:24:05.620Z,100313.16
2023-03-19T06:26:32.312Z,100291.75
2023-03-19T06:28:59.030Z,100283.34
2023-03-19T06:31:26.162Z,100309.28
2023-03-19T06:33:53.137Z,100347.31
2023-03-19T06:36:19.865Z,100314.22
2023-03-19T06:38:46.814Z,100339.78
2023-03-19T06:41:13.593Z,100332.69
2023-03-19T06:43:42.152Z,100289.56
2023-03-19T06:46:11.566Z,100352.91
2023-03-19T06:48:38.724Z,100348.66
2023-03-19T06:51:06.360Z,100349.22
2023-03-19T06:53:33.317Z,100334.34
2023-03-19T06:56:00.046Z,100334.16
2023-03-19T06:58:27.208Z,100331.69
2023-03-19T07:00:53.948Z,100361.81
2023-03-19T07:03:20.861Z,100360.56
2023-03-19T07:05:51.518Z,100379.19
2023-03-19T07:08:18.517Z,100398.47
2023-03-19T07:10:45.375Z,100361.53
2023-03-19T07:13:12.128Z,100332.81
2023-03-19T07:15:38.980Z,100366.59
2023-03-19T07:18:05.877Z,100380.56
2023-03-19T07:20:33.144Z,100356.69
2023-03-19T07:23:00.012Z,100380.03
2023-03-19T07:25:26.763Z,100372.19
2023-03-19T07:27:55.931Z,100415.72
2023-03-19T07:30:23.483Z,100382.28
2023-03-19T07:32:50.641Z,100416.22
2023-03-19T07:35:17.410Z,100386.09
2023-03-19T07:37:44.080Z,100398.03
2023-03-19T07:40:11.729Z,100387.16
2023-03-19T07:42:38.697Z,100417.69
2023-03-19T07:45:06.817Z,100372.31
2023-03-19T07:47:33.530Z,100405.34
2023-03-19T07:50:00.798Z,100399.19
2023-03-19T07:52:27.647Z,100435.50
2023-03-19T07:54:54.424Z,100436.53
2023-03-19T07:57:21.211Z,100451.69
2023-03-19T07:59:47.898Z,100427.75
2023-03-19T08:02:14.898Z,100472.84
2023-03-19T08:04:42.199Z,100478.53
2023-03-19T08:07:12.694Z,100476.41
2023-03-19T08:09:40.979Z,100467.72
2023-03-19T08:12:09.152Z,100450.47
2023-03-19T08:14:36.210Z,100436.75
2023-03-19T08:17:06.060Z,100487.97
2023-03-19T08:19:33.003Z,100436.28
2023-03-19T08:21:59.749Z,100460.28
2023-03-19T08:24:26.564Z,100464.84
2023-03-19T08:26:53.660Z,100515.63
2023-03-19T08:29:21.005Z,100457.75
2023-03-19T08:31:47.736Z,100484.66
2023-03-19T08:34:14.842Z,100487.63
2023-03-19T08:36:41.501Z,100528.94
2023-03-19T08:39:08.749Z,100533.75
2023-03-19T08:41:36.971Z,100478.13
2023-03-19T08:44:04.398Z,100542.94
2023-03-19T08:46:31.580Z,100528.56
2023-03-19T08:49:00.966Z,100521.31
2023-03-19T08:51:31.197Z,100559.63
2023-03-19T08:53:58.060Z,100542.47
2023-03-19T08:56:24.742Z,100527.81
2023-03-19T08:58:51.518Z,100494.31
2023-03-19T09:01:18.205Z,100479.91
2023-03-19T09:03:45.475Z,100456.78
2023-03-19T09:06:14.443Z,100540.44
2023-03-19T09:08:42.233Z,100483.13
2023-03-19T09:11:09.089Z,100521.84
2023-03-19T09:13:36.105Z,100528.16
2023-03-19T09:16:03.152Z,100540.66
2023-03-19T09:18:29.849Z,100507.38
2023-03-19T09:20:56.598Z,100554.13
2023-03-19T09:23:23.537Z,100561.09
2023-03-19T09:25:51.225Z,100515.03
2023-03-19T09:28:18.353Z,100533.00
2023-03-19T09:30:49.599Z,100559.50
2023-03-19T09:33:17.718Z,100574.78
2023-03-19T09:35:49.789Z,100555.72
2023-03-19T09:38:16.635Z,100558.16
2023-03-19T09:40:49.072Z,100541.13
2023-03-19T09:43:24.848Z,100601.47
2023-03-19T09:45:52.179Z,100583.81
2023-03-19T09:48:57.634Z,100595.53
2023-03-19T09:51:46.720Z,100593.28
2023-03-19T09:54:28.558Z,100632.69
2023-03-19T09:56:55.925Z,100558.47
2023-03-19T09:59:25.204Z,100552.56
2023-03-19T10:02:07.010Z,100633.63
2023-03-19T10:04:42.626Z,100627.81
2023-03-19T10:07:24.331Z,100627.38
2023-03-19T10:10:27.097Z,100595.38
2023-03-19T10:13:15.531Z,100641.56
2023-03-19T10:15:44.972Z,100561.41
2023-03-19T10:18:18.468Z,100601.91
2023-03-19T10:21:06.927Z,100627.81
2023-03-19T10:23:53.202Z,100620.47
2023-03-19T10:26:22.372Z,100611.78
2023-03-19T10:29:14.825Z,100614.69
2023-03-19T10:31:52.095Z,100628.41
2023-03-19T10:34:29.461Z,100574.00
2023-03-19T10:37:22.735Z,100579.78
2023-03-19T10:39:51.656Z,100622.22
2023-03-19T10:42:40.945Z,100612.25
2023-03-19T10:45:31.482Z,100612.94
2023-03-19T10:47:59.780Z,100572.63
2023-03-19T10:50:38.922Z,100610.88
2023-03-19T10:53:14.688Z,100604.25
2023-03-19T10:55:53.532Z,100607.13
2023-03-19T10:58:23.903Z,100589.75
2023-03-19T11:01:06.855Z,100584.94
2023-03-19T11:03:34.974Z,100600.88
2023-03-19T11:06:07.972Z,100609.94
2023-03-19T11:08:37.197Z,100571.22
2023-03-19T11:11:04.120Z,100567.78
2023-03-19T11:13:34.266Z,100583.56
2023-03-19T11:16:01.318Z,100571.00
2023-03-19T11:18:37.249Z,100588.09
2023-03-19T11:21:21.464Z,100579.94
2023-03-19T11:23:53.538Z,100602.91
2023-03-19T11:26:21.716Z,100604.41
2023-03-19T11:28:52.132Z,100580.06
2023-03-19T11:31:27.389Z,100614.38
2023-03-19T11:34:03.152Z,100611.59
2023-03-19T11:36:54.121Z,100623.47
2023-03-19T11:39:59.305Z,100621.19
2023-03-19T11:42:41.068Z,100623.53
2023-03-19T11:45:13.704Z,100628.66
2023-03-19T11:47:49.518Z,100630.00
2023-03-19T11:50:22.372Z,100639.31
2023-03-19T11:53:07.258Z,100593.31
2023-03-19T11:55:44.336Z,100621.00
2023-03-19T11:58:35.986Z,100635.94
2023-03-19T12:01:45.833Z,100635.00
2023-03-19T12:04:30.930Z,100629.78
2023-03-19T12:07:24.834Z,100631.50
2023-03-19T12:10:12.792Z,100634.91
2023-03-19T12:13:08.883Z,100624.09
2023-03-19T12:16:02.500Z,100613.16
2023-03-19T12:18:44.651Z,100620.78
2023-03-19T12:22:28.063Z,100625.84
2023-03-19T12:25:03.602Z,100620.22
2023-03-19T12:27:41.882Z,100618.28
2023-03-19T12:30:27.510Z,100622.97
2023-03-19T12:32:58.213Z,100607.59
2023-03-19T12:35:31.876Z,100593.78
2023-03-19T12:38:17.286Z,100622.63
2023-03-19T12:40:50.461Z,100586.94
2023-03-19T12:43:26.384Z,100624.06
2023-03-19T12:46:01.235Z,100617.75
2023-03-19T12:48:51.277Z,100622.16
2023-03-19T12:51:22.856Z,100637.66
2023-03-19T12:53:59.324Z,100611.38
2023-03-19T12:57:00.302Z,100610.66
2023-03-19T12:59:41.129Z,100611.63
2023-03-19T13:02:29.652Z,100638.00
2023-03-19T13:05:07.459Z,100605.41
2023-03-19T13:07:49.144Z,100581.69
2023-03-19T13:10:21.349Z,100596.94
2023-03-19T13:12:50.353Z,100592.09
2023-03-19T13:15:20.819Z,100598.81
2023-03-19T13:18:06.237Z,100598.50
2023-03-19T13:21:00.697Z,100635.28
2023-03-19T13:23:32.536Z,100633.78
2023-03-19T13:26:04.468Z,100632.19
2023-03-19T13:28:35.293Z,100622.91
2023-03-19T13:31:06.806Z,100585.94
2023-03-19T13:33:35.576Z,100619.38
2023-03-19T13:36:05.811Z,100657.53
2023-03-19T13:38:40.623Z,100649.41
2023-03-19T13:41:33.012Z,100655.06
2023-03-19T13:44:01.761Z,100603.56
2023-03-19T13:46:41.232Z,100608.31
2023-03-19T13:49:14.257Z,100637.72
2023-03-19T13:51:40.916Z,100629.06
2023-03-19T13:54:18.003Z,100625.41
2023-03-19T13:57:15.364Z,100626.09
2023-03-19T13:59:45.304Z,100657.75
2023-03-19T14:02:21.356Z,100666.34
2023-03-19T14:05:07.220Z,100652.69
2023-03-19T14:07:41.664Z,100674.16
2023-03-19T14:10:25.405Z,100679.00
2023-03-19T14:13:02.819Z,100669.38
2023-03-19T14:15:30.963Z,100666.50
2023-03-19T14:18:07.485Z,100634.19
2023-03-19T14:20:48.101Z,100624.84
2023-03-19T14:23:42.668Z,100591.38
2023-03-19T14:26:23.333Z,100665.31
2023-03-19T14:29:04.409Z,100644.53
2023-03-19T14:31:42.874Z,100665.31
2023-03-19T14:34:22.124Z,100677.50
2023-03-19T14:37:03.333Z,100658.16
2023-03-19T14:39:40.809Z,100631.81
2023-03-19T14:42:25.602Z,100644.34
2023-03-19T14:45:21.846Z,100679.19
2023-03-19T14:48:09.737Z,100676.84
2023-03-19T14:50:42.387Z,100671.00
2023-03-19T14:53:19.367Z,100629.81
2023-03-19T14:55:51.336Z,100642.22
2023-03-19T14:58:21.043Z,100674.09
2023-03-19T15:00:51.765Z,100600.59
2023-03-19T15:03:30.580Z,100638.41
2023-03-19T15:06:02.576Z,100615.53
2023-03-19T15:08:32.420Z,100618.28
2023-03-19T15:11:15.331Z,100653.03
2023-03-19T15:14:06.600Z,100658.34
2023-03-19T15:16:51.876Z,100644.88
2023-03-19T15:19:29.149Z,100604.94
2023-03-19T15:22:19.713Z,100646.84
2023-03-19T15:24:48.029Z,100659.25
2023-03-19T15:27:22.006Z,100653.88
2023-03-19T15:29:51.549Z,100649.56
2023-03-19T15:32:52.170Z,100652.41
2023-03-19T15:35:24.911Z,100588.38
2023-03-19T15:37:56.850Z,100585.38
2023-03-19T15:40:29.004Z,100622.81
2023-03-19T15:42:59.444Z,100580.16
2023-03-19T15:45:28.558Z,100627.19
2023-03-19T15:48:02.182Z,100601.66
2023-03-19T15:50:34.003Z,100611.09
2023-03-19T15:53:09.138Z,100606.22
2023-03-19T15:55:37.140Z,100640.13
2023-03-19T15:58:16.000Z,100592.72
2023-03-19T16:00:43.826Z,100551.78
2023-03-19T16:03:19.954Z,100588.63
2023-03-19T16:05:52.714Z,100594.72
2023-03-19T16:08:25.945Z,100588.63
2023-03-19T16:10:53.328Z,100645.91
2023-03-19T16:13:27.843Z,100636.81
2023-03-19T16:15:57.183Z,100545.13
2023-03-19T16:18:25.544Z,100612.81
2023-03-19T16:21:02.917Z,100565.00
2023-03-19T16:23:36.149Z,100634.00
2023-03-19T16:26:26.158Z,100624.16
2023-03-19T16:29:05.796Z,100591.78
2023-03-19T16:31:41.395Z,100581.94
2023-03-19T16:34:24.703Z,100599.56
2023-03-19T16:36:51.646Z,100598.44
2023-03-19T16:39:30.643Z,100624.47
2023-03-19T16:42:09.390Z,100627.91
2023-03-19T16:44:40.965Z,100641.84
2023-03-19T16:47:12.102Z,100619.50
2023-03-19T16:49:38.920Z,100572.56
2023-03-19T16:52:10.513Z,100582.78
2023-03-19T16:54:37.474Z,100652.13
2023-03-19T16:57:04.305Z,100598.69
2023-03-19T16:59:31.469Z,100654.19
2023-03-19T17:01:59.034Z,100643.31
2023-03-19T17:04:26.557Z,100610.41
2023-03-19T17:06:53.326Z,100655.63
2023-03-19T17:09:20.843Z,100574.56
2023-03-19T17:11:47.716Z,100614.06
2023-03-19T17:14:21.161Z,100630.34
2023-03-19T17:16:50.866Z,100669.59
2023-03-19T17:19:23.463Z,100699.09
2023-03-19T17:21:53.610Z,100695.97
2023-03-19T17:24:27.229Z,100666.91
2023-03-19T17:26:55.223Z,100699.59
2023-03-19T17:29:23.938Z,100659.09
2023-03-19T17:31:52.003Z,100648.72
2023-03-19T17:34:23.460Z,100699.78
2023-03-19T17:36:53.237Z,100612.72
2023-03-19T17:39:20.081Z,100589.00
2023-03-19T17:41:46.772Z,100665.72
2023-03-19T17:44:14.803Z,100631.28
2023-03-19T17:46:53.294Z,100650.88
2023-03-19T17:49:24.477Z,100711.72
2023-03-19T17:51:51.761Z,100653.47
2023-03-19T17:54:18.844Z,100650.97
2023-03-19T17:56:45.601Z,100667.44
2023-03-19T17:59:12.931Z,100692.81
2023-03-19T18:01:43.137Z,100698.31
2023-03-19T18:04:14.164Z,100701.84
2023-03-19T18:06:44.321Z,100694.19
2023-03-19T18:09:21.631Z,100705.31
2023-03-19T18:11:48.725Z,100649.78
2023-03-19T18:14:15.656Z,100680.72
2023-03-19T18:16:42.890Z,100697.78
2023-03-19T18:19:33.523Z,100690.88
2023-03-19T18:22:00.661Z,100679.75
2023-03-19T18:24:27.589Z,100693.22
2023-03-19T18:26:54.225Z,100681.19
2023-03-19T18:29:21.161Z,100634.69
2023-03-19T18:31:50.190Z,100656.34
2023-03-19T18:34:17.880Z,100625.72
2023-03-19T18:36:44.905Z,100689.66
2023-03-19T18:39:16.379Z,100635.25
2023-03-19T18:41:43.775Z,100667.53
2023-03-19T18:44:12.466Z,100693.16
2023-03-19T18:46:40.734Z,100687.13
2023-03-19T18:49:16.049Z,100669.03
2023-03-19T18:51:58.785Z,100678.66
2023-03-19T18:54:27.708Z,100647.84
2023-03-19T18:56:54.920Z,100647.09
2023-03-19T18:59:25.349Z,100664.31
2023-03-19T19:02:00.884Z,100663.28
2023-03-19T19:04:29.690Z,100645.59
2023-03-19T19:06:56.652Z,100632.25
2023-03-19T19:09:23.349Z,100632.03
2023-03-19T19:11:50.171Z,100652.50
2023-03-19T19:14:22.012Z,100679.88
2023-03-19T19:16:49.038Z,100652.06
2023-03-19T19:19:23.242Z,100691.56
2023-03-19T19:21:53.096Z,100657.16
2023-03-19T19:24:21.059Z,100697.56
2023-03-19T19:26:54.127Z,100694.56
2023-03-19T19:29:25.685Z,100699.09
2023-03-19T19:31:53.655Z,100695.91
2023-03-19T19:34:20.555Z,100666.72
2023-03-19T19:36:47.251Z,100665.00
2023-03-19T19:39:13.916Z,100687.38
2023-03-19T19:41:43.722Z,100688.19
2023-03-19T19:44:18.965Z,100690.75
2023-03-19T19:46:46.187Z,100693.06
2023-03-19T19:49:16.885Z,100693.81
2023-03-19T19:51:43.558Z,100695.44
2023-03-19T19:54:10.518Z,100674.63
2023-03-19T19:56:37.664Z,100682.59
2023-03-19T19:59:06.985Z,100680.97
2023-03-19T20:01:33.675Z,100637.91
2023-03-19T20:04:00.568Z,100681.44
2023-03-19T20:06:27.741Z,100644.00
2023-03-19T20:08:54.425Z,100674.00
2023-03-19T20:11:23.741Z,100688.84
2023-03-19T20:13:54.616Z,100691.44
2023-03-19T20:16:24.184Z,100704.03
2023-03-19T20:18:53.856Z,100681.38
2023-03-19T20:21:22.615Z,100686.16
2023-03-19T20:23:52.995Z,100694.94
2023-03-19T20:26:22.538Z,100693.75
2023-03-19T20:28:50.933Z,100690.09
2023-03-19T20:31:25.475Z,100653.88
2023-03-19T20:33:52.379Z,100681.00
2023-03-19T20:36:19.895Z,100666.38
2023-03-19T20:38:46.659Z,100646.38
2023-03-19T20:41:22.395Z,100656.38
2023-03-19T20:43:50.595Z,100647.56
2023-03-19T20:46:20.341Z,100668.28
2023-03-19T20:48:48.060Z,100627.31
2023-03-19T20:51:21.700Z,100666.19
2023-03-19T20:53:49.950Z,100683.31
2023-03-19T20:56:18.838Z,100669.31
2023-03-19T20:58:45.912Z,100672.81
2023-03-19T21:01:15.607Z,100652.06
2023-03-19T21:03:42.753Z,100680.19
2023-03-19T21:06:20.045Z,100684.13
2023-03-19T21:08:57.737Z,100683.19
2023-03-19T21:11:36.235Z,100652.94
2023-03-19T21:14:03.783Z,100640.38
2023-03-19T21:16:32.345Z,100652.19
2023-03-19T21:18:59.181Z,100664.94
2023-03-19T21:21:37.367Z,100654.53
2023-03-19T21:24:15.650Z,100656.19
2023-03-19T21:26:43.863Z,100656.91
2023-03-19T21:29:34.356Z,100653.09
2023-03-19T21:32:01.026Z,100673.78
2023-03-19T21:34:28.554Z,100635.59
2023-03-19T21:36:55.361Z,100627.84
2023-03-19T21:39:22.093Z,100651.13
2023-03-19T21:41:49.050Z,100672.25
2023-03-19T21:44:20.815Z,100660.41
2023-03-19T21:46:48.793Z,100655.84
2023-03-19T21:49:16.225Z,100661.34
2023-03-19T21:51:44.075Z,100659.66
2023-03-19T21:54:11.388Z,100649.31
2023-03-19T21:56:41.655Z,100645.63
2023-03-19T21:59:18.110Z,100654.50
2023-03-19T22:01:45.502Z,100616.84
2023-03-19T22:04:12.695Z,100647.81
2023-03-19T22:06:40.142Z,100645.91
2023-03-19T22:09:06.827Z,100641.13
2023-03-19T22:11:36.613Z,100641.00
2023-03-19T22:14:15.986Z,100649.28
2023-03-19T22:16:42.711Z,100618.59
2023-03-19T22:19:14.553Z,100619.44
2023-03-19T22:21:41.250Z,100609.16
2023-03-19T22:24:08.175Z,100595.59
2023-03-19T22:26:37.378Z,100602.13
2023-03-19T22:29:07.824Z,100591.56
2023-03-19T22:31:34.944Z,100634.91
2023-03-19T22:34:01.841Z,100604.25
2023-03-19T22:36:28.917Z,100589.91
2023-03-19T22:38:55.686Z,100627.63
2023-03-19T22:41:36.712Z,100628.38
2023-03-19T22:44:08.036Z,100607.47
2023-03-19T22:46:35.437Z,100623.59
2023-03-19T22:49:02.665Z,100608.72
2023-03-19T22:51:30.642Z,100610.28
2023-03-19T22:53:57.285Z,100604.09
2023-03-19T22:56:24.094Z,100611.75
2023-03-19T22:58:50.981Z,100612.72
2023-03-19T23:01:21.201Z,100621.97
2023-03-19T23:03:49.578Z,100605.25
2023-03-19T23:06:29.229Z,100622.38
2023-03-19T23:08:56.203Z,100608.66
2023-03-19T23:11:23.567Z,100584.28
2023-03-19T23:13:50.365Z,100552.31
2023-03-19T23:16:22.452Z,100611.84
2023-03-19T23:18:49.896Z,100601.75
2023-03-19T23:21:18.695Z,100557.19
2023-03-19T23:23:46.095Z,100618.78
2023-03-19T23:26:31.658Z,100599.81
2023-03-19T23:29:03.642Z,100599.69
2023-03-19T23:31:31.690Z,100578.13
2023-03-19T23:33:58.733Z,100587.78
2023-03-19T23:36:25.776Z,100574.75
2023-03-19T23:38:52.460Z,100573.22
2023-03-19T23:41:26.771Z,100585.69
2023-03-19T23:43:54.928Z,100579.66
2023-03-19T23:46:22.225Z,100584.22
2023-03-19T23:48:49.131Z,100580.38
2023-03-19T23:51:16.971Z,100555.97
2023-03-19T23:53:44.321Z,100585.94
2023-03-19T23:56:18.913Z,100570.19
2023-03-19T23:58:47.620Z,100576.88
